sensor_id;sensor_type;location;lat;lon;timestamp;pressure;altitude;pressure_sealevel;temperature;humidity
72961;BME280;61141;46.204;19.774;2022-12-07T00:00:52;100492.91;;;0.08;95.14
72961;BME280;61141;46.204;19.774;2022-12-07T00:03:57;100503.31;;;-0.18;94.65
72961;BME280;61141;46.204;19.774;2022-12-07T00:07:03;100495.97;;;-0.31;94.86
72961;BME280;61141;46.204;19.774;2022-12-07T00:10:07;100493.00;;;-0.48;95.21
72961;BME280;61141;46.204;19.774;2022-12-07T00:13:09;100506.97;;;-0.65;94.48
72961;BME280;61141;46.204;19.774;2022-12-07T00:16:14;100500.50;;;-0.45;95.10
72961;BME280;61141;46.204;19.774;2022-12-07T00:19:17;100503.97;;;-0.26;95.33
72961;BME280;61141;46.204;19.774;2022-12-07T00:22:20;100510.06;;;-0.21;96.71
72961;BME280;61141;46.204;19.774;2022-12-07T00:25:23;100515.41;;;-0.34;95.72
72961;BME280;61141;46.204;19.774;2022-12-07T00:28:26;100515.44;;;-0.53;94.55
72961;BME280;61141;46.204;19.774;2022-12-07T00:31:35;100516.56;;;-0.40;95.23
72961;BME280;61141;46.204;19.774;2022-12-07T00:34:41;100500.91;;;-0.20;95.72
72961;BME280;61141;46.204;19.774;2022-12-07T00:37:44;100504.19;;;-0.23;95.36
72961;BME280;61141;46.204;19.774;2022-12-07T00:40:57;100494.81;;;0.07;96.41
72961;BME280;61141;46.204;19.774;2022-12-07T00:44:00;100500.56;;;-0.32;95.40
72961;BME280;61141;46.204;19.774;2022-12-07T00:47:03;100492.94;;;-0.43;95.78
72961;BME280;61141;46.204;19.774;2022-12-07T00:50:06;100495.47;;;-0.52;95.89
72961;BME280;61141;46.204;19.774;2022-12-07T00:53:09;100493.97;;;-0.58;96.07
72961;BME280;61141;46.204;19.774;2022-12-07T00:56:14;100499.13;;;-0.62;95.91
72961;BME280;61141;46.204;19.774;2022-12-07T00:59:17;100499.53;;;-0.36;96.00
72961;BME280;61141;46.204;19.774;2022-12-07T01:02:21;100491.53;;;-0.22;96.11
72961;BME280;61141;46.204;19.774;2022-12-07T01:05:25;100475.62;;;-0.05;96.26
72961;BME280;61141;46.204;19.774;2022-12-07T01:08:28;100481.56;;;-0.22;95.14
72961;BME280;61141;46.204;19.774;2022-12-07T01:11:31;100484.44;;;-0.50;94.36
72961;BME280;61141;46.204;19.774;2022-12-07T01:14:34;100485.69;;;-0.62;94.32
72961;BME280;61141;46.204;19.774;2022-12-07T01:17:37;100475.53;;;-0.83;94.43
72961;BME280;61141;46.204;19.774;2022-12-07T01:20:40;100481.25;;;-0.90;94.77
72961;BME280;61141;46.204;19.774;2022-12-07T01:23:44;100484.09;;;-1.00;95.01
72961;BME280;61141;46.204;19.774;2022-12-07T01:26:49;100490.47;;;-0.96;95.35
72961;BME280;61141;46.204;19.774;2022-12-07T01:29:51;100478.63;;;-0.95;95.91
72961;BME280;61141;46.204;19.774;2022-12-07T01:32:54;100485.09;;;-0.58;95.75
72961;BME280;61141;46.204;19.774;2022-12-07T01:36:02;100476.41;;;-0.69;95.62
72961;BME280;61141;46.204;19.774;2022-12-07T01:39:07;100474.63;;;-0.79;95.55
72961;BME280;61141;46.204;19.774;2022-12-07T01:42:11;100477.47;;;-0.70;96.29
72961;BME280;61141;46.204;19.774;2022-12-07T01:48:41;100468.16;;;-0.59;94.74
72961;BME280;61141;46.204;19.774;2022-12-07T01:51:46;100463.47;;;-0.86;94.35
72961;BME280;61141;46.204;19.774;2022-12-07T01:54:53;100469.19;;;-0.74;94.97
72961;BME280;61141;46.204;19.774;2022-12-07T01:57:57;100476.03;;;-1.00;94.65
72961;BME280;61141;46.204;19.774;2022-12-07T02:01:00;100479.06;;;-1.06;94.85
72961;BME280;61141;46.204;19.774;2022-12-07T02:04:04;100470.41;;;-1.22;94.62
72961;BME280;61141;46.204;19.774;2022-12-07T02:07:08;100478.47;;;-1.03;95.33
72961;BME280;61141;46.204;19.774;2022-12-07T02:13:19;100483.69;;;-1.12;95.44
72961;BME280;61141;46.204;19.774;2022-12-07T02:16:38;100481.56;;;-1.15;95.42
72961;BME280;61141;46.204;19.774;2022-12-07T02:33:11;100472.53;;;-0.44;95.17
72961;BME280;61141;46.204;19.774;2022-12-07T02:36:23;100459.12;;;-0.49;94.72
72961;BME280;61141;46.204;19.774;2022-12-07T02:39:37;100452.66;;;-0.48;93.97
72961;BME280;61141;46.204;19.774;2022-12-07T02:42:47;100452.34;;;-0.47;93.85
72961;BME280;61141;46.204;19.774;2022-12-07T02:45:55;100446.34;;;-0.39;93.98
72961;BME280;61141;46.204;19.774;2022-12-07T02:49:00;100442.56;;;-0.24;94.30
72961;BME280;61141;46.204;19.774;2022-12-07T02:52:03;100438.00;;;-0.56;92.70
72961;BME280;61141;46.204;19.774;2022-12-07T02:55:07;100438.13;;;-0.47;92.48
72961;BME280;61141;46.204;19.774;2022-12-07T02:58:51;100435.31;;;-0.56;92.99
72961;BME280;61141;46.204;19.774;2022-12-07T03:09:14;100435.97;;;-0.83;94.04
72961;BME280;61141;46.204;19.774;2022-12-07T03:12:27;100425.59;;;-1.08;94.26
72961;BME280;61141;46.204;19.774;2022-12-07T03:18:56;100414.47;;;-1.20;94.79
72961;BME280;61141;46.204;19.774;2022-12-07T03:22:04;100411.78;;;-1.20;94.70
72961;BME280;61141;46.204;19.774;2022-12-07T03:25:10;100405.34;;;-1.19;94.84
72961;BME280;61141;46.204;19.774;2022-12-07T03:28:17;100393.44;;;-0.62;95.73
72961;BME280;61141;46.204;19.774;2022-12-07T03:31:29;100398.12;;;-0.22;95.58
72961;BME280;61141;46.204;19.774;2022-12-07T03:34:38;100402.97;;;-0.70;94.50
72961;BME280;61141;46.204;19.774;2022-12-07T03:38:08;100402.78;;;-0.92;94.29
72961;BME280;61141;46.204;19.774;2022-12-07T03:44:25;100402.56;;;-1.14;94.60
72961;BME280;61141;46.204;19.774;2022-12-07T03:48:13;100397.16;;;-0.77;95.26
72961;BME280;61141;46.204;19.774;2022-12-07T03:51:31;100391.19;;;-0.74;94.48
72961;BME280;61141;46.204;19.774;2022-12-07T03:54:44;100393.41;;;-0.76;93.51
72961;BME280;61141;46.204;19.774;2022-12-07T03:57:52;100388.28;;;-0.58;93.76
72961;BME280;61141;46.204;19.774;2022-12-07T04:00:57;100388.25;;;-0.91;93.25
72961;BME280;61141;46.204;19.774;2022-12-07T04:04:00;100385.19;;;-0.84;93.58
72961;BME280;61141;46.204;19.774;2022-12-07T04:07:02;100384.56;;;-0.63;93.91
72961;BME280;61141;46.204;19.774;2022-12-07T04:10:06;100389.31;;;-1.10;93.07
72961;BME280;61141;46.204;19.774;2022-12-07T04:13:09;100386.06;;;-1.26;92.90
72961;BME280;61141;46.204;19.774;2022-12-07T04:16:12;100381.81;;;-1.27;93.30
72961;BME280;61141;46.204;19.774;2022-12-07T04:19:15;100390.28;;;-1.39;93.74
72961;BME280;61141;46.204;19.774;2022-12-07T04:22:25;100397.22;;;-1.38;94.35
72961;BME280;61141;46.204;19.774;2022-12-07T04:25:27;100389.87;;;-1.27;93.74
72961;BME280;61141;46.204;19.774;2022-12-07T04:28:30;100401.97;;;-0.92;94.92
72961;BME280;61141;46.204;19.774;2022-12-07T04:31:33;100397.50;;;-0.97;93.71
72961;BME280;61141;46.204;19.774;2022-12-07T04:34:36;100395.59;;;-1.34;93.77
72961;BME280;61141;46.204;19.774;2022-12-07T04:37:38;100390.84;;;-1.42;94.36
72961;BME280;61141;46.204;19.774;2022-12-07T04:40:42;100403.41;;;-1.37;94.75
72961;BME280;61141;46.204;19.774;2022-12-07T04:43:45;100407.25;;;-1.43;94.64
72961;BME280;61141;46.204;19.774;2022-12-07T04:46:49;100407.72;;;-1.36;94.70
72961;BME280;61141;46.204;19.774;2022-12-07T04:49:53;100393.94;;;-1.53;94.39
72961;BME280;61141;46.204;19.774;2022-12-07T04:52:55;100390.97;;;-1.52;94.67
72961;BME280;61141;46.204;19.774;2022-12-07T04:55:58;100388.91;;;-1.60;94.54
72961;BME280;61141;46.204;19.774;2022-12-07T04:59:04;100392.47;;;-1.64;94.70
72961;BME280;61141;46.204;19.774;2022-12-07T05:02:07;100392.56;;;-1.51;94.67
72961;BME280;61141;46.204;19.774;2022-12-07T05:05:10;100403.66;;;-1.57;93.42
72961;BME280;61141;46.204;19.774;2022-12-07T05:08:12;100396.47;;;-1.38;94.21
72961;BME280;61141;46.204;19.774;2022-12-07T05:11:15;100399.66;;;-1.36;93.98
72961;BME280;61141;46.204;19.774;2022-12-07T05:14:37;100394.62;;;-1.24;94.14
72961;BME280;61141;46.204;19.774;2022-12-07T05:17:40;100382.31;;;-1.44;93.88
72961;BME280;61141;46.204;19.774;2022-12-07T05:20:44;100377.97;;;-1.63;93.98
72961;BME280;61141;46.204;19.774;2022-12-07T05:23:47;100397.44;;;-1.53;94.13
72961;BME280;61141;46.204;19.774;2022-12-07T05:26:49;100392.31;;;-1.49;94.23
72961;BME280;61141;46.204;19.774;2022-12-07T05:29:52;100394.69;;;-1.48;94.20
72961;BME280;61141;46.204;19.774;2022-12-07T05:32:55;100396.97;;;-1.36;94.47
72961;BME280;61141;46.204;19.774;2022-12-07T05:35:58;100402.97;;;-1.44;94.50
72961;BME280;61141;46.204;19.774;2022-12-07T05:39:01;100404.13;;;-1.50;94.68
72961;BME280;61141;46.204;19.774;2022-12-07T05:42:04;100402.87;;;-1.58;94.84
72961;BME280;61141;46.204;19.774;2022-12-07T05:45:17;100407.22;;;-1.62;94.62
72961;BME280;61141;46.204;19.774;2022-12-07T05:48:20;100410.31;;;-1.50;95.66
72961;BME280;61141;46.204;19.774;2022-12-07T05:51:22;100402.75;;;-1.10;95.29
72961;BME280;61141;46.204;19.774;2022-12-07T05:54:25;100405.72;;;-1.49;94.61
72961;BME280;61141;46.204;19.774;2022-12-07T05:57:28;100405.03;;;-1.60;94.54
72961;BME280;61141;46.204;19.774;2022-12-07T06:00:32;100412.09;;;-1.64;94.30
72961;BME280;61141;46.204;19.774;2022-12-07T06:03:35;100394.66;;;-1.66;94.42
72961;BME280;61141;46.204;19.774;2022-12-07T06:06:38;100410.41;;;-1.60;94.31
72961;BME280;61141;46.204;19.774;2022-12-07T06:09:41;100418.28;;;-1.68;94.02
72961;BME280;61141;46.204;19.774;2022-12-07T06:12:44;100418.47;;;-1.60;93.92
72961;BME280;61141;46.204;19.774;2022-12-07T06:15:48;100413.91;;;-1.17;94.29
72961;BME280;61141;46.204;19.774;2022-12-07T06:18:51;100414.38;;;-0.59;94.31
72961;BME280;61141;46.204;19.774;2022-12-07T06:21:54;100427.09;;;-0.65;93.85
72961;BME280;61141;46.204;19.774;2022-12-07T06:24:57;100420.56;;;-0.77;92.99
72961;BME280;61141;46.204;19.774;2022-12-07T06:28:00;100419.47;;;-0.76;92.33
72961;BME280;61141;46.204;19.774;2022-12-07T06:31:03;100421.59;;;-0.92;91.53
72961;BME280;61141;46.204;19.774;2022-12-07T06:34:15;100421.88;;;-0.93;91.51
72961;BME280;61141;46.204;19.774;2022-12-07T06:37:18;100421.66;;;-0.78;91.60
72961;BME280;61141;46.204;19.774;2022-12-07T06:40:21;100420.00;;;-0.93;91.51
72961;BME280;61141;46.204;19.774;2022-12-07T06:43:24;100417.00;;;-1.10;91.06
72961;BME280;61141;46.204;19.774;2022-12-07T06:46:27;100414.91;;;-0.94;92.23
72961;BME280;61141;46.204;19.774;2022-12-07T06:49:29;100408.38;;;-0.70;92.07
72961;BME280;61141;46.204;19.774;2022-12-07T06:52:33;100413.81;;;-0.75;91.75
72961;BME280;61141;46.204;19.774;2022-12-07T06:55:36;100397.53;;;-0.65;91.13
72961;BME280;61141;46.204;19.774;2022-12-07T06:58:39;100416.94;;;-1.05;90.15
72961;BME280;61141;46.204;19.774;2022-12-07T07:01:42;100400.25;;;-0.83;90.89
72961;BME280;61141;46.204;19.774;2022-12-07T07:04:50;100400.16;;;-0.46;91.86
72961;BME280;61141;46.204;19.774;2022-12-07T07:07:53;100408.66;;;-0.90;90.58
72961;BME280;61141;46.204;19.774;2022-12-07T07:11:16;100401.47;;;-1.13;90.76
72961;BME280;61141;46.204;19.774;2022-12-07T07:14:19;100401.97;;;-0.92;93.15
72961;BME280;61141;46.204;19.774;2022-12-07T07:17:23;100398.31;;;-0.83;93.16
72961;BME280;61141;46.204;19.774;2022-12-07T07:20:27;100403.22;;;-0.85;92.74
72961;BME280;61141;46.204;19.774;2022-12-07T07:23:30;100400.50;;;-0.85;92.50
72961;BME280;61141;46.204;19.774;2022-12-07T07:26:32;100388.88;;;-0.62;93.22
72961;BME280;61141;46.204;19.774;2022-12-07T07:29:35;100384.84;;;-0.32;93.32
72961;BME280;61141;46.204;19.774;2022-12-07T07:32:38;100382.87;;;-0.26;92.99
72961;BME280;61141;46.204;19.774;2022-12-07T07:35:41;100389.31;;;-0.41;93.24
72961;BME280;61141;46.204;19.774;2022-12-07T07:38:43;100395.19;;;0.07;94.45
72961;BME280;61141;46.204;19.774;2022-12-07T07:41:46;100391.28;;;-0.14;94.20
72961;BME280;61141;46.204;19.774;2022-12-07T07:44:54;100399.28;;;0.05;94.53
72961;BME280;61141;46.204;19.774;2022-12-07T07:47:57;100405.94;;;0.62;94.85
72961;BME280;61141;46.204;19.774;2022-12-07T07:51:00;100414.28;;;0.87;95.21
72961;BME280;61141;46.204;19.774;2022-12-07T07:54:03;100426.28;;;0.68;95.20
72961;BME280;61141;46.204;19.774;2022-12-07T07:57:06;100414.00;;;1.11;96.11
72961;BME280;61141;46.204;19.774;2022-12-07T08:00:13;100422.94;;;1.34;95.58
72961;BME280;61141;46.204;19.774;2022-12-07T08:03:17;100425.09;;;1.45;96.09
72961;BME280;61141;46.204;19.774;2022-12-07T08:06:21;100425.75;;;1.29;96.91
72961;BME280;61141;46.204;19.774;2022-12-07T08:09:27;100428.56;;;1.24;97.32
72961;BME280;61141;46.204;19.774;2022-12-07T08:12:29;100430.84;;;1.52;97.94
72961;BME280;61141;46.204;19.774;2022-12-07T08:15:32;100430.09;;;1.38;97.91
72961;BME280;61141;46.204;19.774;2022-12-07T08:18:36;100418.91;;;1.98;99.01
72961;BME280;61141;46.204;19.774;2022-12-07T08:21:39;100423.44;;;2.19;98.37
72961;BME280;61141;46.204;19.774;2022-12-07T08:24:42;100431.66;;;2.45;97.38
72961;BME280;61141;46.204;19.774;2022-12-07T08:27:45;100433.81;;;2.74;97.62
72961;BME280;61141;46.204;19.774;2022-12-07T08:30:47;100443.75;;;3.30;97.80
72961;BME280;61141;46.204;19.774;2022-12-07T08:33:50;100437.53;;;2.95;99.15
72961;BME280;61141;46.204;19.774;2022-12-07T08:36:53;100448.47;;;2.81;99.40
72961;BME280;61141;46.204;19.774;2022-12-07T08:39:56;100450.91;;;3.09;98.75
72961;BME280;61141;46.204;19.774;2022-12-07T08:42:59;100451.72;;;3.09;99.22
72961;BME280;61141;46.204;19.774;2022-12-07T08:49:21;100451.53;;;3.40;99.03
72961;BME280;61141;46.204;19.774;2022-12-07T08:52:26;100456.34;;;3.60;100.00
72961;BME280;61141;46.204;19.774;2022-12-07T08:55:29;100462.66;;;3.81;99.78
72961;BME280;61141;46.204;19.774;2022-12-07T08:58:33;100460.75;;;3.90;100.00
72961;BME280;61141;46.204;19.774;2022-12-07T09:01:36;100460.13;;;3.59;100.00
72961;BME280;61141;46.204;19.774;2022-12-07T09:04:39;100465.56;;;3.59;100.00
72961;BME280;61141;46.204;19.774;2022-12-07T09:07:43;100463.00;;;3.71;100.00
72961;BME280;61141;46.204;19.774;2022-12-07T09:10:48;100462.06;;;3.67;100.00
72961;BME280;61141;46.204;19.774;2022-12-07T09:13:51;100464.09;;;3.87;99.63
72961;BME280;61141;46.204;19.774;2022-12-07T09:16:54;100453.56;;;4.03;100.00
72961;BME280;61141;46.204;19.774;2022-12-07T09:19:57;100449.94;;;4.37;99.59
72961;BME280;61141;46.204;19.774;2022-12-07T09:23:00;100452.19;;;4.35;99.61
72961;BME280;61141;46.204;19.774;2022-12-07T09:26:03;100447.81;;;4.51;99.36
72961;BME280;61141;46.204;19.774;2022-12-07T09:29:12;100441.41;;;4.55;98.44
72961;BME280;61141;46.204;19.774;2022-12-07T09:32:15;100438.16;;;4.62;96.15
72961;BME280;61141;46.204;19.774;2022-12-07T09:35:18;100434.56;;;4.49;96.19
72961;BME280;61141;46.204;19.774;2022-12-07T09:38:21;100431.72;;;4.75;94.52
72961;BME280;61141;46.204;19.774;2022-12-07T09:41:25;100432.25;;;4.89;93.87
72961;BME280;61141;46.204;19.774;2022-12-07T09:44:29;100428.59;;;4.64;95.15
72961;BME280;61141;46.204;19.774;2022-12-07T09:47:32;100428.88;;;5.21;92.90
72961;BME280;61141;46.204;19.774;2022-12-07T09:50:36;100424.72;;;4.95;92.26
72961;BME280;61141;46.204;19.774;2022-12-07T09:53:39;100427.78;;;4.93;90.81
72961;BME280;61141;46.204;19.774;2022-12-07T09:56:44;100427.28;;;5.20;91.74
72961;BME280;61141;46.204;19.774;2022-12-07T09:59:47;100433.44;;;5.29;91.29
72961;BME280;61141;46.204;19.774;2022-12-07T10:03:01;100427.06;;;5.25;90.96
72961;BME280;61141;46.204;19.774;2022-12-07T10:06:06;100417.28;;;5.12;90.15
72961;BME280;61141;46.204;19.774;2022-12-07T10:09:14;100414.22;;;5.14;88.30
72961;BME280;61141;46.204;19.774;2022-12-07T10:12:21;100425.22;;;5.17;88.72
72961;BME280;61141;46.204;19.774;2022-12-07T10:18:51;100427.37;;;5.45;90.75
72961;BME280;61141;46.204;19.774;2022-12-07T10:25:22;100426.06;;;5.83;90.90
72961;BME280;61141;46.204;19.774;2022-12-07T10:28:34;100429.34;;;5.77;90.40
72961;BME280;61141;46.204;19.774;2022-12-07T10:31:54;100419.56;;;5.97;89.88
72961;BME280;61141;46.204;19.774;2022-12-07T10:35:23;100420.72;;;6.08;90.33
72961;BME280;61141;46.204;19.774;2022-12-07T10:38:27;100416.25;;;5.91;90.36
72961;BME280;61141;46.204;19.774;2022-12-07T10:41:30;100419.53;;;5.64;90.92
72961;BME280;61141;46.204;19.774;2022-12-07T10:44:34;100420.84;;;5.99;90.09
72961;BME280;61141;46.204;19.774;2022-12-07T10:48:02;100408.22;;;5.62;90.01
72961;BME280;61141;46.204;19.774;2022-12-07T10:52:01;100408.00;;;5.87;87.98
72961;BME280;61141;46.204;19.774;2022-12-07T11:01:29;100394.91;;;5.69;85.60
72961;BME280;61141;46.204;19.774;2022-12-07T11:05:25;100402.87;;;5.53;85.99
72961;BME280;61141;46.204;19.774;2022-12-07T11:18:03;100383.69;;;5.70;85.67
72961;BME280;61141;46.204;19.774;2022-12-07T11:21:30;100398.69;;;5.88;85.39
72961;BME280;61141;46.204;19.774;2022-12-07T11:24:48;100395.44;;;5.62;84.82
72961;BME280;61141;46.204;19.774;2022-12-07T11:37:46;100380.25;;;5.94;83.58
72961;BME280;61141;46.204;19.774;2022-12-07T11:40:51;100365.56;;;6.07;82.33
72961;BME280;61141;46.204;19.774;2022-12-07T11:44:07;100378.16;;;6.24;81.52
72961;BME280;61141;46.204;19.774;2022-12-07T11:47:23;100378.12;;;6.12;82.01
72961;BME280;61141;46.204;19.774;2022-12-07T11:54:03;100374.62;;;6.35;82.92
72961;BME280;61141;46.204;19.774;2022-12-07T11:57:16;100369.19;;;6.47;82.32
72961;BME280;61141;46.204;19.774;2022-12-07T12:00:21;100366.00;;;6.58;81.91
72961;BME280;61141;46.204;19.774;2022-12-07T12:03:30;100371.88;;;6.72;79.92
72961;BME280;61141;46.204;19.774;2022-12-07T12:06:45;100359.22;;;6.52;78.42
72961;BME280;61141;46.204;19.774;2022-12-07T12:09:56;100359.88;;;6.73;78.23
72961;BME280;61141;46.204;19.774;2022-12-07T12:20:32;100351.94;;;7.07;75.69
72961;BME280;61141;46.204;19.774;2022-12-07T12:23:45;100347.28;;;7.08;76.63
72961;BME280;61141;46.204;19.774;2022-12-07T12:26:53;100342.97;;;7.07;77.11
72961;BME280;61141;46.204;19.774;2022-12-07T12:30:07;100339.56;;;7.10;75.91
72961;BME280;61141;46.204;19.774;2022-12-07T12:33:30;100339.72;;;7.29;75.34
72961;BME280;61141;46.204;19.774;2022-12-07T12:43:40;100337.06;;;7.17;76.46
72961;BME280;61141;46.204;19.774;2022-12-07T12:46:53;100335.22;;;7.21;76.11
72961;BME280;61141;46.204;19.774;2022-12-07T12:50:36;100336.22;;;7.29;75.12
72961;BME280;61141;46.204;19.774;2022-12-07T12:53:40;100334.72;;;7.31;75.84
72961;BME280;61141;46.204;19.774;2022-12-07T13:00:22;100344.78;;;7.15;76.27
72961;BME280;61141;46.204;19.774;2022-12-07T13:03:31;100338.69;;;7.06;77.30
72961;BME280;61141;46.204;19.774;2022-12-07T13:06:36;100338.06;;;7.12;77.75
72961;BME280;61141;46.204;19.774;2022-12-07T13:09:43;100352.41;;;7.09;76.74
72961;BME280;61141;46.204;19.774;2022-12-07T13:20:39;100352.53;;;7.01;77.56
72961;BME280;61141;46.204;19.774;2022-12-07T13:22:58;100350.22;;;7.15;77.69
72961;BME280;61141;46.204;19.774;2022-12-07T13:26:09;100349.56;;;7.06;77.63
72961;BME280;61141;46.204;19.774;2022-12-07T13:29:20;100351.81;;;6.76;78.79
72961;BME280;61141;46.204;19.774;2022-12-07T13:32:26;100342.63;;;6.69;78.37
72961;BME280;61141;46.204;19.774;2022-12-07T13:35:36;100340.59;;;6.66;78.27
72961;BME280;61141;46.204;19.774;2022-12-07T13:38:58;100347.62;;;6.67;78.31
72961;BME280;61141;46.204;19.774;2022-12-07T13:42:18;100350.03;;;6.56;79.13
72961;BME280;61141;46.204;19.774;2022-12-07T13:45:28;100341.72;;;6.65;80.69
72961;BME280;61141;46.204;19.774;2022-12-07T13:48:51;100341.59;;;6.73;80.73
72961;BME280;61141;46.204;19.774;2022-12-07T13:52:12;100348.28;;;6.76;81.30
72961;BME280;61141;46.204;19.774;2022-12-07T13:55:16;100344.91;;;6.67;81.60
72961;BME280;61141;46.204;19.774;2022-12-07T13:58:19;100345.84;;;6.34;81.43
72961;BME280;61141;46.204;19.774;2022-12-07T14:01:24;100338.13;;;6.48;82.71
72961;BME280;61141;46.204;19.774;2022-12-07T14:07:56;100350.72;;;6.29;83.54
72961;BME280;61141;46.204;19.774;2022-12-07T14:11:00;100354.91;;;6.14;84.93
72961;BME280;61141;46.204;19.774;2022-12-07T14:14:03;100353.94;;;5.86;86.56
72961;BME280;61141;46.204;19.774;2022-12-07T14:17:21;100353.16;;;5.85;87.25
72961;BME280;61141;46.204;19.774;2022-12-07T14:23:34;100348.84;;;5.84;87.88
72961;BME280;61141;46.204;19.774;2022-12-07T14:26:38;100351.12;;;5.50;88.09
72961;BME280;61141;46.204;19.774;2022-12-07T14:29:42;100338.81;;;5.64;88.91
72961;BME280;61141;46.204;19.774;2022-12-07T14:32:53;100358.91;;;5.84;89.22
72961;BME280;61141;46.204;19.774;2022-12-07T14:35:56;100358.78;;;5.80;88.95
72961;BME280;61141;46.204;19.774;2022-12-07T14:39:00;100366.44;;;5.54;90.18
72961;BME280;61141;46.204;19.774;2022-12-07T14:42:03;100363.44;;;5.47;89.52
72961;BME280;61141;46.204;19.774;2022-12-07T14:45:13;100359.97;;;5.47;89.33
72961;BME280;61141;46.204;19.774;2022-12-07T14:48:17;100369.44;;;5.41;89.11
72961;BME280;61141;46.204;19.774;2022-12-07T14:51:40;100372.06;;;5.16;90.03
72961;BME280;61141;46.204;19.774;2022-12-07T14:55:12;100373.69;;;5.09;90.00
72961;BME280;61141;46.204;19.774;2022-12-07T14:58:17;100380.59;;;4.86;90.88
72961;BME280;61141;46.204;19.774;2022-12-07T15:01:21;100382.09;;;4.74;91.17
72961;BME280;61141;46.204;19.774;2022-12-07T15:04:23;100380.47;;;4.53;93.05
72961;BME280;61141;46.204;19.774;2022-12-07T15:07:26;100374.28;;;4.73;93.00
72961;BME280;61141;46.204;19.774;2022-12-07T15:10:31;100375.97;;;4.57;93.34
72961;BME280;61141;46.204;19.774;2022-12-07T15:13:37;100390.16;;;4.33;93.84
72961;BME280;61141;46.204;19.774;2022-12-07T15:16:58;100385.06;;;4.61;93.59
72961;BME280;61141;46.204;19.774;2022-12-07T15:20:13;100384.50;;;4.47;93.35
72961;BME280;61141;46.204;19.774;2022-12-07T15:23:17;100391.75;;;4.26;94.22
72961;BME280;61141;46.204;19.774;2022-12-07T15:26:20;100386.34;;;4.26;94.77
72961;BME280;61141;46.204;19.774;2022-12-07T15:29:22;100391.31;;;4.15;94.79
72961;BME280;61141;46.204;19.774;2022-12-07T15:32:25;100392.41;;;4.23;94.31
72961;BME280;61141;46.204;19.774;2022-12-07T15:35:28;100391.06;;;4.08;94.30
72961;BME280;61141;46.204;19.774;2022-12-07T15:38:31;100391.97;;;4.50;94.63
72961;BME280;61141;46.204;19.774;2022-12-07T15:41:54;100393.56;;;4.51;94.14
72961;BME280;61141;46.204;19.774;2022-12-07T15:44:57;100398.94;;;4.30;93.76
72961;BME280;61141;46.204;19.774;2022-12-07T15:48:07;100406.56;;;4.28;93.23
72961;BME280;61141;46.204;19.774;2022-12-07T15:51:30;100395.94;;;4.14;93.45
72961;BME280;61141;46.204;19.774;2022-12-07T15:54:33;100403.19;;;4.02;93.83
72961;BME280;61141;46.204;19.774;2022-12-07T15:57:37;100395.41;;;4.00;94.48
72961;BME280;61141;46.204;19.774;2022-12-07T16:00:40;100391.75;;;3.88;95.07
72961;BME280;61141;46.204;19.774;2022-12-07T16:03:44;100412.12;;;4.02;95.20
72961;BME280;61141;46.204;19.774;2022-12-07T16:06:47;100408.66;;;3.85;95.89
72961;BME280;61141;46.204;19.774;2022-12-07T16:09:50;100409.41;;;4.02;96.01
72961;BME280;61141;46.204;19.774;2022-12-07T16:12:53;100417.06;;;4.00;95.64
72961;BME280;61141;46.204;19.774;2022-12-07T16:15:56;100421.53;;;3.96;95.61
72961;BME280;61141;46.204;19.774;2022-12-07T16:18:59;100418.34;;;3.94;95.50
72961;BME280;61141;46.204;19.774;2022-12-07T16:22:03;100420.63;;;3.75;95.93
72961;BME280;61141;46.204;19.774;2022-12-07T16:25:06;100431.31;;;3.72;96.48
72961;BME280;61141;46.204;19.774;2022-12-07T16:28:09;100427.81;;;3.71;97.18
72961;BME280;61141;46.204;19.774;2022-12-07T16:31:15;100420.75;;;3.87;96.95
72961;BME280;61141;46.204;19.774;2022-12-07T16:34:18;100415.31;;;3.96;96.30
72961;BME280;61141;46.204;19.774;2022-12-07T16:37:21;100419.94;;;3.95;96.05
72961;BME280;61141;46.204;19.774;2022-12-07T16:40:24;100422.34;;;3.88;96.02
72961;BME280;61141;46.204;19.774;2022-12-07T16:43:27;100429.87;;;3.74;96.44
72961;BME280;61141;46.204;19.774;2022-12-07T16:46:34;100430.50;;;3.71;97.09
72961;BME280;61141;46.204;19.774;2022-12-07T16:49:38;100440.22;;;3.72;97.07
72961;BME280;61141;46.204;19.774;2022-12-07T16:52:41;100435.69;;;4.02;96.55
72961;BME280;61141;46.204;19.774;2022-12-07T16:55:44;100430.75;;;4.04;96.09
72961;BME280;61141;46.204;19.774;2022-12-07T16:58:48;100438.84;;;4.21;95.94
72961;BME280;61141;46.204;19.774;2022-12-07T17:01:52;100430.44;;;4.05;95.55
72961;BME280;61141;46.204;19.774;2022-12-07T17:04:54;100433.34;;;4.00;95.74
72961;BME280;61141;46.204;19.774;2022-12-07T17:07:57;100436.72;;;3.80;96.19
72961;BME280;61141;46.204;19.774;2022-12-07T17:11:00;100443.25;;;3.62;96.93
72961;BME280;61141;46.204;19.774;2022-12-07T17:14:03;100443.69;;;3.90;96.79
72961;BME280;61141;46.204;19.774;2022-12-07T17:17:25;100452.78;;;3.85;96.86
72961;BME280;61141;46.204;19.774;2022-12-07T17:20:28;100436.41;;;3.65;97.34
72961;BME280;61141;46.204;19.774;2022-12-07T17:23:31;100453.31;;;3.62;97.71
72961;BME280;61141;46.204;19.774;2022-12-07T17:26:35;100451.53;;;3.74;97.84
72961;BME280;61141;46.204;19.774;2022-12-07T17:29:38;100455.47;;;4.02;96.87
72961;BME280;61141;46.204;19.774;2022-12-07T17:32:40;100446.28;;;3.86;96.16
72961;BME280;61141;46.204;19.774;2022-12-07T17:35:43;100448.66;;;3.79;96.17
72961;BME280;61141;46.204;19.774;2022-12-07T17:38:46;100457.94;;;3.70;96.28
72961;BME280;61141;46.204;19.774;2022-12-07T17:41:50;100455.84;;;3.58;96.84
72961;BME280;61141;46.204;19.774;2022-12-07T17:45:11;100456.31;;;3.43;97.54
72961;BME280;61141;46.204;19.774;2022-12-07T17:48:14;100458.56;;;3.41;97.59
72961;BME280;61141;46.204;19.774;2022-12-07T17:51:18;100469.56;;;3.44;97.58
72961;BME280;61141;46.204;19.774;2022-12-07T17:54:40;100465.25;;;3.35;98.12